KRAP Airport (Rapid City Rgnl) Information

FAA: RAP - ICAO: KRAP

KRAP Airport Location

State South Dakota
County Pennington
City Rapid City
KRAP Airport is 8 miles southeast of Rapid City, SD.
Latitude 44-02-43.2000N
Longitude 103-03-26.5000W
Elevation 3,203ft

KRAP Airport METARs

METAR KRAP 280052Z 32015KT 10SM CLR 08/M01 A2992 RMK AO2 SLP142 T00831006
Altimeter 29.92"
Temperature 8.3°C (46.9°F)
Wind 320° at 15KT
Clouds Skies are clear.
Visibility 10.0mi
Time observed: 2021-10-28T00:52:00Z

KRAP Airport Details

Status Operational
Activation August 1950
Ownership Public
Usage Public
Chart CHEYENNE
ATC on-site Yes
Beacon schedule sunset-sunrise
Beacon color clear green

KRAP Airport Contacts

Owner CITY OF RAPID CITY
Owner address 4550 TERMINAL RD - STE 102, RAPID CITY, SD 57703
Owner phone 605-394-4110
Manager JOHN AYOUB
Manager address PO BOX 580, MOBRIDGE, SD 57601-0580
Manager phone 605-845-3692

KRAP Airport (Rapid City Rgnl) Radio Frequencies

KRAP (Airport) Radio Frequencies

UNICOM 122.95
Common traffic advisory frequency (CTAF) 125.85